createdAt,value
2018-08-27T00:01:38.488Z,96452.99
2018-08-27T00:04:05.954Z,96452.75
2018-08-27T00:06:33.323Z,96457.17
2018-08-27T00:09:00.621Z,96458.35
2018-08-27T00:11:27.932Z,96457.78
2018-08-27T00:13:55.230Z,96457.52
2018-08-27T00:16:22.479Z,96459.66
2018-08-27T00:18:49.793Z,96457.40
2018-08-27T00:21:17.135Z,96460.62
2018-08-27T00:23:44.425Z,96462.77
2018-08-27T00:26:11.661Z,96457.27
2018-08-27T00:28:38.981Z,96466.91
2018-08-27T00:31:06.521Z,96464.87
2018-08-27T00:33:33.873Z,96458.19
2018-08-27T00:36:01.186Z,96454.88
2018-08-27T00:38:28.509Z,96459.41
2018-08-27T00:40:55.743Z,96457.06
2018-08-27T00:43:23.022Z,96456.82
2018-08-27T00:45:50.326Z,96452.18
2018-08-27T00:48:17.616Z,96448.71
2018-08-27T00:50:44.867Z,96450.38
2018-08-27T00:53:12.358Z,96448.48
2018-08-27T00:55:39.714Z,96446.80
2018-08-27T00:58:07.014Z,96451.46
2018-08-27T01:00:34.268Z,96449.66
2018-08-27T01:03:01.489Z,96447.89
2018-08-27T01:05:28.754Z,96445.61
2018-08-27T01:07:56.028Z,96449.90
2018-08-27T01:10:23.274Z,96443.72
2018-08-27T01:12:50.595Z,96440.86
2018-08-27T01:15:17.900Z,96442.27
2018-08-27T01:17:45.282Z,96434.77
2018-08-27T01:20:12.623Z,96431.66
2018-08-27T01:22:39.976Z,96433.34
2018-08-27T01:25:07.217Z,96429.39
2018-08-27T01:27:34.529Z,96433.66
2018-08-27T01:31:04.651Z,96436.34
2018-08-27T01:33:31.951Z,96438.62
2018-08-27T01:35:59.281Z,96436.81
2018-08-27T01:38:26.622Z,96430.84
2018-08-27T01:40:53.993Z,96423.92
2018-08-27T01:43:21.216Z,96422.48
2018-08-27T01:45:48.509Z,96420.69
2018-08-27T01:48:15.950Z,96412.94
2018-08-27T01:50:43.245Z,96423.45
2018-08-27T01:53:10.515Z,96420.02
2018-08-27T01:55:37.819Z,96412.67
2018-08-27T01:58:05.190Z,96409.53
2018-08-27T02:00:32.491Z,96398.81
2018-08-27T02:02:59.753Z,96400.70
2018-08-27T02:05:26.997Z,96392.03
2018-08-27T02:07:54.231Z,96393.86
2018-08-27T02:10:21.500Z,96400.20
2018-08-27T02:12:48.844Z,96395.59
2018-08-27T02:15:16.212Z,96386.31
2018-08-27T02:17:43.481Z,96389.40
2018-08-27T02:20:10.759Z,96390.83
2018-08-27T02:22:38.099Z,96396.28
2018-08-27T02:25:05.423Z,96396.16
2018-08-27T02:27:32.750Z,96399.48
2018-08-27T02:30:00.031Z,96396.13
2018-08-27T02:32:27.283Z,96397.09
2018-08-27T02:34:54.614Z,96383.73
2018-08-27T02:37:21.949Z,96393.52
2018-08-27T02:39:49.156Z,96386.97
2018-08-27T02:42:16.483Z,96384.58
2018-08-27T02:44:43.722Z,96391.04
2018-08-27T02:47:11.041Z,96386.15
2018-08-27T02:49:38.465Z,96387.02
2018-08-27T02:52:05.833Z,96383.09
2018-08-27T02:54:33.161Z,96389.14
2018-08-27T02:57:00.454Z,96390.11
2018-08-27T02:59:27.839Z,96384.48
2018-08-27T03:01:55.142Z,96382.45
2018-08-27T03:04:22.422Z,96384.84
2018-08-27T03:06:49.722Z,96378.64
2018-08-27T03:09:16.986Z,96371.74
2018-08-27T03:11:44.308Z,96376.11
2018-08-27T03:14:11.606Z,96370.67
2018-08-27T03:16:39.016Z,96376.84
2018-08-27T03:19:06.485Z,96370.48
2018-08-27T03:21:33.727Z,96365.63
2018-08-27T03:24:01.082Z,96371.13
2018-08-27T03:26:28.378Z,96370.63
2018-08-27T03:28:55.725Z,96371.95
2018-08-27T03:31:22.987Z,96380.65
2018-08-27T03:33:50.437Z,96379.31
2018-08-27T03:36:17.740Z,96377.39
2018-08-27T03:38:45.059Z,96383.94
2018-08-27T03:41:12.408Z,96379.75
2018-08-27T03:43:39.750Z,96375.70
2018-08-27T03:46:07.028Z,96378.93
2018-08-27T03:48:34.307Z,96378.09
2018-08-27T03:51:01.543Z,96370.95
2018-08-27T03:53:28.813Z,96364.78
2018-08-27T03:55:56.227Z,96363.94
2018-08-27T03:58:23.507Z,96372.91
2018-08-27T04:00:50.723Z,96364.47
2018-08-27T04:03:18.033Z,96372.06
2018-08-27T04:05:45.416Z,96372.56
2018-08-27T04:08:12.728Z,96377.66
2018-08-27T04:10:39.977Z,96376.20
2018-08-27T04:13:07.209Z,96372.14
2018-08-27T04:15:34.553Z,96373.23
2018-08-27T04:18:01.888Z,96377.70
2018-08-27T04:20:29.168Z,96380.47
2018-08-27T04:22:56.422Z,96388.48
2018-08-27T04:25:23.714Z,96389.06
2018-08-27T04:27:50.930Z,96384.05
2018-08-27T04:30:18.212Z,96383.09
2018-08-27T04:32:45.572Z,96386.53
2018-08-27T04:35:12.878Z,96383.53
2018-08-27T04:37:40.104Z,96383.14
2018-08-27T04:40:07.436Z,96388.84
2018-08-27T04:42:34.722Z,96385.00
2018-08-27T04:45:02.009Z,96388.51
2018-08-27T04:47:29.199Z,96380.72
2018-08-27T04:49:56.496Z,96379.25
2018-08-27T04:52:23.819Z,96384.95
2018-08-27T04:54:51.060Z,96386.50
2018-08-27T04:57:18.375Z,96388.04
2018-08-27T04:59:50.561Z,96390.50
2018-08-27T05:02:17.847Z,96386.80
2018-08-27T05:04:45.160Z,96389.08
2018-08-27T05:07:12.560Z,96390.81
2018-08-27T05:09:39.951Z,96388.11
2018-08-27T05:12:07.381Z,96389.92
2018-08-27T05:14:34.642Z,96394.05
2018-08-27T05:17:02.151Z,96389.16
2018-08-27T05:19:29.401Z,96390.01
2018-08-27T05:21:56.647Z,96385.88
2018-08-27T05:24:23.977Z,96387.60
2018-08-27T05:26:51.278Z,96392.80
2018-08-27T05:29:18.608Z,96395.64
2018-08-27T05:31:45.821Z,96395.77
2018-08-27T05:34:13.083Z,96401.47
2018-08-27T05:36:40.388Z,96400.34
2018-08-27T05:39:08.464Z,96395.38
2018-08-27T05:41:35.765Z,96401.70
2018-08-27T05:44:03.154Z,96399.38
2018-08-27T05:46:30.411Z,96399.65
2018-08-27T05:48:57.701Z,96402.34
2018-08-27T05:51:24.959Z,96399.95
2018-08-27T05:53:52.234Z,96402.61
2018-08-27T05:56:19.464Z,96402.66
2018-08-27T05:58:46.741Z,96398.66
2018-08-27T06:01:14.065Z,96399.09
2018-08-27T06:03:41.303Z,96403.16
2018-08-27T06:06:08.788Z,96407.55
2018-08-27T06:08:36.079Z,96403.70
2018-08-27T06:11:03.456Z,96409.36
2018-08-27T06:13:30.664Z,96397.63
2018-08-27T06:15:57.946Z,96406.36
2018-08-27T06:18:25.919Z,96410.73
2018-08-27T06:20:53.385Z,96404.92
2018-08-27T06:23:20.762Z,96408.87
2018-08-27T06:25:48.025Z,96407.08
2018-08-27T06:28:15.306Z,96409.41
2018-08-27T06:30:42.551Z,96408.23
2018-08-27T06:33:09.813Z,96409.55
2018-08-27T06:35:37.044Z,96408.71
2018-08-27T06:38:04.617Z,96409.05
2018-08-27T06:40:31.904Z,96407.10
2018-08-27T06:42:59.179Z,96402.83
2018-08-27T06:45:26.563Z,96409.09
2018-08-27T06:47:53.937Z,96404.78
2018-08-27T06:50:21.206Z,96405.35
2018-08-27T06:52:48.388Z,96404.56
2018-08-27T06:55:15.651Z,96405.03
2018-08-27T06:57:42.876Z,96404.36
2018-08-27T07:00:10.675Z,96406.48
2018-08-27T07:02:37.910Z,96405.88
2018-08-27T07:05:05.366Z,96407.53
2018-08-27T07:07:32.709Z,96407.57
2018-08-27T07:10:00.038Z,96399.58
2018-08-27T07:12:27.378Z,96406.55
2018-08-27T07:14:54.666Z,96404.89
2018-08-27T07:17:21.940Z,96406.81
2018-08-27T07:19:49.191Z,96402.28
2018-08-27T07:22:16.399Z,96406.70
2018-08-27T07:24:43.695Z,96414.72
2018-08-27T07:27:10.977Z,96425.00
2018-08-27T07:29:38.348Z,96424.66
2018-08-27T07:32:05.663Z,96422.36
2018-08-27T07:34:32.942Z,96428.27
2018-08-27T07:37:00.208Z,96427.17
2018-08-27T07:39:27.573Z,96427.59
2018-08-27T07:41:54.844Z,96432.17
2018-08-27T07:44:22.170Z,96428.39
2018-08-27T07:46:49.439Z,96425.39
2018-08-27T07:49:16.805Z,96430.23
2018-08-27T07:51:44.190Z,96426.28
2018-08-27T07:54:11.491Z,96428.31
2018-08-27T07:56:38.761Z,96430.73
2018-08-27T07:59:06.108Z,96421.73
2018-08-27T08:01:33.781Z,96429.41
2018-08-27T08:04:01.497Z,96423.97
2018-08-27T08:06:29.049Z,96429.28
2018-08-27T08:08:56.463Z,96425.58
2018-08-27T08:11:23.756Z,96431.83
2018-08-27T08:13:51.004Z,96432.31
2018-08-27T08:16:18.324Z,96433.80
2018-08-27T08:18:45.664Z,96433.67
2018-08-27T08:21:13.048Z,96438.73
2018-08-27T08:23:40.401Z,96435.75
2018-08-27T08:26:07.724Z,96435.77
2018-08-27T08:28:34.972Z,96435.34
2018-08-27T08:31:02.244Z,96436.97
2018-08-27T08:33:29.493Z,96439.02
2018-08-27T08:35:56.731Z,96437.53
2018-08-27T08:38:23.950Z,96445.75
2018-08-27T08:40:51.192Z,96436.49
2018-08-27T08:43:18.451Z,96446.80
2018-08-27T08:45:45.777Z,96445.18
2018-08-27T08:48:13.058Z,96446.80
2018-08-27T08:50:40.358Z,96450.79
2018-08-27T08:53:07.573Z,96445.62
2018-08-27T08:55:34.802Z,96449.78
2018-08-27T08:58:02.114Z,96448.90
2018-08-27T09:00:29.412Z,96448.86
2018-08-27T09:02:56.678Z,96446.99
2018-08-27T09:05:23.951Z,96452.36
2018-08-27T09:07:51.242Z,96415.20
2018-08-27T09:10:18.571Z,96444.84
2018-08-27T09:12:45.938Z,96446.93
2018-08-27T09:15:13.201Z,96445.33
2018-08-27T09:17:40.527Z,96442.19
2018-08-27T09:20:09.730Z,96444.48
2018-08-27T09:22:37.001Z,96447.44
2018-08-27T09:25:04.476Z,96447.04
2018-08-27T09:27:31.803Z,96447.19
2018-08-27T09:29:59.112Z,96452.20
2018-08-27T09:32:26.422Z,96445.44
2018-08-27T09:34:53.703Z,96446.68
2018-08-27T09:37:20.945Z,96439.98
2018-08-27T09:39:48.239Z,96443.41
2018-08-27T09:42:15.483Z,96443.59
2018-08-27T09:44:42.877Z,96449.11
2018-08-27T09:47:10.223Z,96443.22
2018-08-27T09:49:37.513Z,96444.53
2018-08-27T09:52:04.818Z,96444.33
2018-08-27T09:54:32.066Z,96445.08
2018-08-27T09:56:59.295Z,96450.53
2018-08-27T09:59:26.556Z,96451.27
2018-08-27T10:01:57.844Z,96451.16
2018-08-27T10:04:25.163Z,96450.38
2018-08-27T10:06:52.419Z,96451.58
2018-08-27T10:09:19.742Z,96446.77
2018-08-27T10:11:47.068Z,96442.20
2018-08-27T10:14:14.411Z,96448.23
2018-08-27T10:16:41.684Z,96445.58
2018-08-27T10:19:08.975Z,96451.41
2018-08-27T10:21:36.236Z,96445.64
2018-08-27T10:24:03.585Z,96448.80
2018-08-27T10:26:30.891Z,96447.66
2018-08-27T10:28:58.158Z,96448.00
2018-08-27T10:31:25.421Z,96442.63
2018-08-27T10:33:52.741Z,96450.22
2018-08-27T10:36:20.060Z,96445.58
2018-08-27T10:38:47.293Z,96447.11
2018-08-27T10:41:14.653Z,96453.09
2018-08-27T10:43:42.002Z,96451.95
2018-08-27T10:46:09.364Z,96449.78
2018-08-27T10:48:36.726Z,96439.11
2018-08-27T10:51:04.074Z,96444.09
2018-08-27T10:53:31.353Z,96445.45
2018-08-27T10:55:58.747Z,96445.33
2018-08-27T10:58:26.178Z,96453.64
2018-08-27T11:00:53.376Z,96459.27
2018-08-27T11:03:20.679Z,96461.92
2018-08-27T11:05:47.934Z,96454.95
2018-08-27T11:08:15.190Z,96455.95
2018-08-27T11:10:42.771Z,96457.28
2018-08-27T11:13:10.038Z,96460.92
2018-08-27T11:15:37.356Z,96452.97
2018-08-27T11:18:04.753Z,96458.13
2018-08-27T11:20:32.203Z,96453.66
2018-08-27T11:22:59.272Z,96451.98
2018-08-27T11:25:26.522Z,96453.77
2018-08-27T11:27:53.790Z,96459.59
2018-08-27T11:30:21.135Z,96456.44
2018-08-27T11:32:48.381Z,96451.77
2018-08-27T11:35:15.708Z,96454.26
2018-08-27T11:37:42.920Z,96459.03
2018-08-27T11:40:10.667Z,96458.20
2018-08-27T11:42:39.903Z,96458.34
2018-08-27T11:45:07.538Z,96460.19
2018-08-27T11:47:34.901Z,96460.36
2018-08-27T11:50:02.299Z,96462.67
2018-08-27T11:52:29.544Z,96450.77
2018-08-27T11:54:56.895Z,96452.60
2018-08-27T11:57:24.091Z,96454.61
2018-08-27T11:59:51.395Z,96453.29
2018-08-27T12:02:18.675Z,96448.98
2018-08-27T12:04:45.976Z,96460.23
2018-08-27T12:07:13.281Z,96452.28
2018-08-27T12:09:52.275Z,96456.28
2018-08-27T12:12:49.260Z,96455.59
2018-08-27T12:15:17.849Z,96449.80
2018-08-27T12:17:45.157Z,96450.94
2018-08-27T12:20:12.384Z,96456.09
2018-08-27T12:22:39.712Z,96444.63
2018-08-27T12:25:07.098Z,96451.92
2018-08-27T12:27:34.328Z,96449.80
2018-08-27T12:30:02.679Z,96451.58
2018-08-27T12:32:30.021Z,96449.88
2018-08-27T12:34:57.705Z,96454.36
2018-08-27T12:37:24.936Z,96453.64
2018-08-27T12:39:52.248Z,96449.98
2018-08-27T12:42:19.575Z,96452.77
2018-08-27T12:44:46.975Z,96456.38
2018-08-27T12:47:15.144Z,96456.66
2018-08-27T12:49:42.431Z,96457.87
2018-08-27T12:52:10.287Z,96454.77
2018-08-27T12:54:37.557Z,96455.45
2018-08-27T12:57:04.846Z,96454.13
2018-08-27T12:59:32.140Z,96460.36
2018-08-27T13:01:59.385Z,96459.32
2018-08-27T13:04:26.643Z,96460.11
2018-08-27T13:06:53.855Z,96465.27
2018-08-27T13:09:21.203Z,96467.08
2018-08-27T13:11:49.819Z,96466.70
2018-08-27T13:14:17.189Z,96459.86
2018-08-27T13:16:44.405Z,96467.33
2018-08-27T13:19:11.660Z,96463.04
2018-08-27T13:21:38.922Z,96465.53
2018-08-27T13:24:06.212Z,96457.66
2018-08-27T13:26:33.507Z,96460.41
2018-08-27T13:29:00.777Z,96460.84
2018-08-27T13:31:28.149Z,96464.83
2018-08-27T13:33:55.335Z,96465.36
2018-08-27T13:36:22.683Z,96456.34
2018-08-27T13:38:49.974Z,96466.64
2018-08-27T13:41:17.313Z,96465.73
2018-08-27T13:43:44.543Z,96463.95
2018-08-27T13:46:42.479Z,96460.28
2018-08-27T13:49:09.747Z,96468.91
2018-08-27T13:51:43.356Z,96466.24
2018-08-27T13:54:10.659Z,96467.39
2018-08-27T13:56:38.121Z,96464.21
2018-08-27T13:59:05.383Z,96466.46
2018-08-27T14:01:32.735Z,96463.80
2018-08-27T14:03:59.984Z,96466.17
2018-08-27T14:06:27.396Z,96469.69
2018-08-27T14:08:54.633Z,96471.88
2018-08-27T14:11:21.929Z,96468.53
2018-08-27T14:13:49.189Z,96472.29
2018-08-27T14:16:17.120Z,96478.27
2018-08-27T14:18:44.414Z,96476.23
2018-08-27T14:21:12.505Z,96476.94
2018-08-27T14:23:39.770Z,96476.27
2018-08-27T14:26:07.183Z,96473.34
2018-08-27T14:28:34.342Z,96465.34
2018-08-27T14:31:01.657Z,96468.49
2018-08-27T14:33:28.892Z,96464.89
2018-08-27T14:35:56.276Z,96463.91
2018-08-27T14:38:23.594Z,96466.13
2018-08-27T14:40:50.862Z,96467.48
2018-08-27T14:43:18.207Z,96461.75
2018-08-27T14:45:45.556Z,96469.58
2018-08-27T14:48:12.887Z,96466.33
2018-08-27T14:50:40.056Z,96462.05
2018-08-27T14:53:07.351Z,96463.98
2018-08-27T14:55:34.712Z,96461.23
2018-08-27T14:58:02.011Z,96463.72
2018-08-27T15:00:29.301Z,96468.87
2018-08-27T15:02:56.612Z,96469.16
2018-08-27T15:05:23.884Z,96470.08
2018-08-27T15:07:51.155Z,96473.30
2018-08-27T15:10:18.493Z,96473.34
2018-08-27T15:12:45.755Z,96463.14
2018-08-27T15:15:13.064Z,96473.73
2018-08-27T15:17:40.434Z,96468.91
2018-08-27T15:20:07.843Z,96475.73
2018-08-27T15:22:35.203Z,96478.41
2018-08-27T15:25:02.504Z,96483.47
2018-08-27T15:27:29.796Z,96488.27
2018-08-27T15:29:57.081Z,96481.94
2018-08-27T15:32:24.323Z,96482.70
2018-08-27T15:34:51.587Z,96487.06
2018-08-27T15:37:19.066Z,96483.77
2018-08-27T15:39:46.245Z,96484.90
2018-08-27T15:42:13.514Z,96484.78
2018-08-27T15:44:40.868Z,96490.05
2018-08-27T15:47:08.103Z,96496.56
2018-08-27T15:49:35.423Z,96495.08
2018-08-27T15:52:02.686Z,96498.61
2018-08-27T15:54:31.036Z,96503.05
2018-08-27T15:56:58.376Z,96500.55
2018-08-27T15:59:25.639Z,96499.27
2018-08-27T16:01:52.924Z,96499.02
2018-08-27T16:04:20.234Z,96494.95
2018-08-27T16:06:47.507Z,96501.41
2018-08-27T16:09:14.773Z,96501.96
2018-08-27T16:14:18.893Z,96502.36
2018-08-27T16:16:46.211Z,96503.69
2018-08-27T16:19:13.515Z,96509.59
2018-08-27T16:21:40.862Z,96506.05
2018-08-27T16:24:08.133Z,96505.73
2018-08-27T16:26:38.052Z,96510.31
2018-08-27T16:29:05.364Z,96512.53
2018-08-27T16:31:32.631Z,96506.06
2018-08-27T16:33:59.987Z,96512.91
2018-08-27T16:36:27.284Z,96510.32
2018-08-27T16:38:54.582Z,96515.31
2018-08-27T16:41:21.849Z,96519.78
2018-08-27T16:43:49.161Z,96514.93
2018-08-27T16:46:16.514Z,96508.15
2018-08-27T16:48:43.767Z,96507.60
2018-08-27T16:51:11.066Z,96511.49
2018-08-27T16:53:38.357Z,96506.77
2018-08-27T16:56:05.713Z,96514.59
2018-08-27T16:58:33.066Z,96512.82
2018-08-27T17:01:00.303Z,96509.84
2018-08-27T17:03:27.610Z,96519.58
2018-08-27T17:05:55.452Z,96521.45
2018-08-27T17:08:22.857Z,96522.11
2018-08-27T17:10:50.191Z,96534.61
2018-08-27T17:13:17.506Z,96533.73
2018-08-27T17:15:44.853Z,96548.07
2018-08-27T17:18:12.170Z,96553.58
2018-08-27T17:20:39.484Z,96556.75
2018-08-27T17:23:06.798Z,96563.58
2018-08-27T17:25:34.151Z,96569.61
2018-08-27T17:28:01.886Z,96564.83
2018-08-27T17:30:29.129Z,96567.45
2018-08-27T17:32:56.405Z,96576.76
2018-08-27T17:35:23.710Z,96577.73
2018-08-27T17:37:51.299Z,96582.36
2018-08-27T17:40:18.626Z,96592.16
2018-08-27T17:42:45.918Z,96592.98
2018-08-27T17:45:13.332Z,96592.98
2018-08-27T17:47:40.543Z,96597.77
2018-08-27T17:50:08.062Z,96598.09
2018-08-27T17:52:35.384Z,96603.88
2018-08-27T17:55:02.880Z,96598.52
2018-08-27T17:57:30.183Z,96599.00
2018-08-27T17:59:57.555Z,96604.97
2018-08-27T18:02:24.930Z,96610.58
2018-08-27T18:04:52.311Z,96612.88
2018-08-27T18:07:19.537Z,96617.81
2018-08-27T18:09:46.849Z,96614.84
2018-08-27T18:12:14.231Z,96616.61
2018-08-27T18:14:41.514Z,96616.70
2018-08-27T18:17:08.790Z,96626.22
2018-08-27T18:19:36.116Z,96619.89
2018-08-27T18:22:03.598Z,96625.80
2018-08-27T18:24:30.938Z,96633.04
2018-08-27T18:26:59.098Z,96634.33
2018-08-27T18:29:26.407Z,96630.96
2018-08-27T18:31:53.711Z,96640.18
2018-08-27T18:34:21.018Z,96633.89
2018-08-27T18:36:48.300Z,96637.80
2018-08-27T18:39:15.674Z,96640.13
2018-08-27T18:41:42.897Z,96649.84
2018-08-27T18:44:10.195Z,96651.83
2018-08-27T18:46:37.514Z,96651.97
2018-08-27T18:49:04.948Z,96653.09
2018-08-27T18:51:32.400Z,96657.91
2018-08-27T18:53:59.712Z,96658.91
2018-08-27T18:56:27.142Z,96654.32
2018-08-27T18:58:54.486Z,96663.05
2018-08-27T19:01:26.360Z,96667.12
2018-08-27T19:03:53.642Z,96671.06
2018-08-27T19:06:20.993Z,96674.77
2018-08-27T19:08:48.358Z,96675.56
2018-08-27T19:11:15.682Z,96674.56
2018-08-27T19:13:42.989Z,96670.37
2018-08-27T19:16:10.316Z,96673.20
2018-08-27T19:18:37.651Z,96672.22
2018-08-27T19:21:04.957Z,96692.73
2018-08-27T19:23:32.335Z,96689.14
2018-08-27T19:25:59.535Z,96668.59
2018-08-27T19:28:26.787Z,96695.91
2018-08-27T19:30:54.295Z,96693.52
2018-08-27T19:33:21.745Z,96694.03
2018-08-27T19:35:49.182Z,96695.06
2018-08-27T19:38:16.300Z,96697.02
2018-08-27T19:40:43.618Z,96691.28
2018-08-27T19:43:10.971Z,96690.44
2018-08-27T19:45:38.255Z,96692.03
2018-08-27T19:48:05.581Z,96701.95
2018-08-27T19:50:32.893Z,96706.34
2018-08-27T19:53:00.322Z,96698.12
2018-08-27T19:55:27.646Z,96711.31
2018-08-27T19:57:54.956Z,96711.71
2018-08-27T20:00:22.274Z,96712.75
2018-08-27T20:02:49.583Z,96716.37
2018-08-27T20:05:16.850Z,96716.33
2018-08-27T20:07:44.175Z,96709.80
2018-08-27T20:10:11.662Z,96705.09
2018-08-27T20:12:38.967Z,96702.74
2018-08-27T20:15:06.391Z,96707.81
2018-08-27T20:17:33.746Z,96709.09
2018-08-27T20:20:01.124Z,96702.16
2018-08-27T20:22:28.531Z,96700.63
2018-08-27T20:24:55.929Z,96700.08
2018-08-27T20:27:23.217Z,96705.35
2018-08-27T20:29:50.505Z,96708.34
2018-08-27T20:32:17.809Z,96712.42
2018-08-27T20:34:45.157Z,96719.31
2018-08-27T20:37:12.532Z,96719.39
2018-08-27T20:39:40.117Z,96724.45
2018-08-27T20:42:07.385Z,96728.88
2018-08-27T20:44:34.696Z,96732.95
2018-08-27T20:47:02.776Z,96732.52
2018-08-27T20:49:30.053Z,96731.98
2018-08-27T20:51:57.361Z,96738.91
2018-08-27T20:54:24.649Z,96742.87
2018-08-27T20:56:52.052Z,96744.85
2018-08-27T20:59:19.319Z,96746.70
2018-08-27T21:01:46.610Z,96743.17
2018-08-27T21:04:14.025Z,96739.37
2018-08-27T21:06:41.281Z,96738.87
2018-08-27T21:09:08.613Z,96738.31
2018-08-27T21:11:35.935Z,96730.41
2018-08-27T21:14:11.083Z,96729.31
2018-08-27T21:16:38.672Z,96734.14
2018-08-27T21:19:06.103Z,96729.41
2018-08-27T21:21:33.489Z,96735.43
2018-08-27T21:24:00.848Z,96740.14
2018-08-27T21:26:28.243Z,96748.44
2018-08-27T21:28:55.479Z,96749.29
2018-08-27T21:31:22.801Z,96759.44
2018-08-27T21:33:50.055Z,96759.15
2018-08-27T21:36:17.376Z,96764.88
2018-08-27T21:38:44.660Z,96758.77
2018-08-27T21:41:11.947Z,96767.52
2018-08-27T21:43:39.332Z,96768.95
2018-08-27T21:46:06.695Z,96767.39
2018-08-27T21:48:33.967Z,96762.72
2018-08-27T21:51:01.319Z,96763.44
2018-08-27T21:53:28.668Z,96766.87
2018-08-27T21:55:55.971Z,96766.93
2018-08-27T21:58:23.269Z,96771.85
2018-08-27T22:00:54.498Z,96773.05
2018-08-27T22:03:40.493Z,96769.22
2018-08-27T22:06:08.391Z,96776.42
2018-08-27T22:08:35.775Z,96783.01
2018-08-27T22:11:03.025Z,96775.29
2018-08-27T22:13:30.316Z,96777.92
2018-08-27T22:15:57.612Z,96781.59
2018-08-27T22:18:24.974Z,96780.80
2018-08-27T22:20:52.262Z,96780.58
2018-08-27T22:26:13.283Z,96784.94
2018-08-27T22:28:40.638Z,96785.16
2018-08-27T22:31:08.046Z,96788.12
2018-08-27T22:33:35.363Z,96796.06
2018-08-27T22:36:02.663Z,96792.13
2018-08-27T22:38:30.019Z,96800.83
2018-08-27T22:40:57.350Z,96812.55
2018-08-27T22:43:24.675Z,96809.91
2018-08-27T22:45:51.968Z,96813.39
2018-08-27T22:48:19.249Z,96816.22
2018-08-27T22:50:46.595Z,96817.25
2018-08-27T22:53:13.887Z,96819.67
2018-08-27T22:55:41.211Z,96813.18
2018-08-27T22:58:08.496Z,96813.58
2018-08-27T23:00:35.850Z,96805.11
2018-08-27T23:03:08.930Z,96815.17
2018-08-27T23:05:36.279Z,96812.73
2018-08-27T23:08:03.613Z,96808.20
2018-08-27T23:10:30.895Z,96807.40
2018-08-27T23:12:58.162Z,96813.36
2018-08-27T23:15:25.459Z,96815.36
2018-08-27T23:17:52.756Z,96817.75
2018-08-27T23:20:20.119Z,96815.34
2018-08-27T23:22:47.452Z,96816.78
2018-08-27T23:25:14.833Z,96818.10
2018-08-27T23:27:42.208Z,96820.11
2018-08-27T23:30:09.460Z,96822.34
2018-08-27T23:32:36.909Z,96816.27
2018-08-27T23:35:04.439Z,96815.98
2018-08-27T23:37:31.783Z,96821.88
2018-08-27T23:39:59.101Z,96824.28
2018-08-27T23:42:26.358Z,96819.77
2018-08-27T23:44:53.645Z,96828.28
2018-08-27T23:47:20.984Z,96824.33
2018-08-27T23:49:48.265Z,96826.62
2018-08-27T23:52:15.748Z,96823.70
2018-08-27T23:54:43.028Z,96831.48
2018-08-27T23:57:10.302Z,96833.55
2018-08-27T23:59:37.600Z,96824.12
